createdAt,value
2018-06-28T00:00:28.205Z,970.59
2018-06-28T00:01:28.180Z,970.57
2018-06-28T00:02:28.200Z,970.57
2018-06-28T00:03:28.238Z,970.63
2018-06-28T00:04:28.200Z,970.56
2018-06-28T00:05:28.246Z,970.55
2018-06-28T00:06:28.220Z,970.55
2018-06-28T00:07:28.207Z,970.55
2018-06-28T00:08:28.187Z,970.51
2018-06-28T00:09:28.183Z,970.48
2018-06-28T00:10:28.243Z,970.47
2018-06-28T00:11:28.184Z,970.44
2018-06-28T00:12:28.185Z,970.48
2018-06-28T00:13:28.206Z,970.45
2018-06-28T00:14:28.191Z,970.42
2018-06-28T00:15:28.232Z,970.42
2018-06-28T00:16:28.187Z,970.37
2018-06-28T00:17:28.181Z,970.38
2018-06-28T00:18:28.237Z,970.39
2018-06-28T00:19:28.192Z,970.39
2018-06-28T00:20:28.216Z,970.37
2018-06-28T00:21:28.208Z,970.39
2018-06-28T00:22:28.208Z,970.34
2018-06-28T00:23:28.201Z,970.37
2018-06-28T00:24:28.209Z,970.33
2018-06-28T00:25:28.192Z,970.32
2018-06-28T00:26:28.265Z,970.28
2018-06-28T00:27:28.258Z,970.29
2018-06-28T00:28:28.244Z,970.27
2018-06-28T00:29:28.179Z,970.30
2018-06-28T00:30:28.217Z,970.26
2018-06-28T00:31:28.244Z,970.23
2018-06-28T00:32:28.190Z,970.28
2018-06-28T00:33:28.246Z,970.27
2018-06-28T00:34:28.264Z,970.26
2018-06-28T00:35:28.216Z,970.32
2018-06-28T00:36:28.265Z,970.31
2018-06-28T00:37:28.217Z,970.28
2018-06-28T00:38:28.264Z,970.25
2018-06-28T00:39:28.250Z,970.22
2018-06-28T00:40:28.280Z,970.22
2018-06-28T00:41:28.255Z,970.21
2018-06-28T00:42:28.250Z,970.18
2018-06-28T00:43:28.257Z,970.17
2018-06-28T00:44:28.258Z,970.14
2018-06-28T00:45:28.284Z,970.14
2018-06-28T00:46:29.300Z,970.13
2018-06-28T00:47:28.221Z,970.09
2018-06-28T00:48:28.292Z,970.09
2018-06-28T00:49:28.293Z,970.05
2018-06-28T00:50:28.296Z,970.05
2018-06-28T00:51:28.237Z,970.04
2018-06-28T00:52:28.343Z,970.04
2018-06-28T00:53:28.341Z,970.05
2018-06-28T00:54:28.268Z,970.04
2018-06-28T00:55:28.349Z,970.04
2018-06-28T00:56:28.309Z,970.02
2018-06-28T00:57:28.369Z,970.05
2018-06-28T00:58:28.249Z,970.03
2018-06-28T00:59:28.266Z,970.08
2018-06-28T01:00:28.337Z,970.05
2018-06-28T01:01:28.290Z,970.04
2018-06-28T01:02:28.269Z,970.04
2018-06-28T01:03:28.422Z,970.02
2018-06-28T01:04:29.316Z,969.98
2018-06-28T01:05:28.343Z,969.99
2018-06-28T01:06:28.345Z,969.98
2018-06-28T01:07:28.250Z,969.97
2018-06-28T01:08:28.251Z,969.93
2018-06-28T01:09:28.372Z,969.94
2018-06-28T01:10:28.290Z,969.94
2018-06-28T01:11:28.233Z,969.93
2018-06-28T01:12:28.220Z,969.92
2018-06-28T01:13:28.222Z,969.95
2018-06-28T01:14:28.305Z,969.94
2018-06-28T01:15:28.294Z,969.96
2018-06-28T01:16:28.230Z,969.96
2018-06-28T01:17:29.190Z,969.93
2018-06-28T01:18:28.296Z,969.96
2018-06-28T01:19:28.220Z,969.95
2018-06-28T01:20:28.292Z,969.95
2018-06-28T01:21:28.238Z,970.02
2018-06-28T01:22:28.251Z,970.06
2018-06-28T01:23:28.315Z,970.07
2018-06-28T01:24:28.232Z,970.13
2018-06-28T01:25:28.213Z,970.10
2018-06-28T01:26:28.221Z,970.15
2018-06-28T01:27:28.264Z,970.12
2018-06-28T01:28:28.269Z,970.12
2018-06-28T01:29:29.209Z,970.10
2018-06-28T01:30:28.399Z,970.11
2018-06-28T01:31:28.350Z,970.09
2018-06-28T01:32:28.364Z,970.06
2018-06-28T01:33:28.388Z,970.06
2018-06-28T01:34:28.524Z,970.07
2018-06-28T01:35:28.373Z,970.06
2018-06-28T01:36:28.618Z,970.06
2018-06-28T01:37:28.226Z,970.01
2018-06-28T01:38:28.190Z,969.99
2018-06-28T01:39:28.219Z,969.97
2018-06-28T01:40:28.272Z,970.00
2018-06-28T01:41:28.219Z,969.97
2018-06-28T01:42:28.247Z,969.95
2018-06-28T01:43:28.280Z,969.94
2018-06-28T01:44:28.212Z,969.93
2018-06-28T01:45:28.217Z,969.94
2018-06-28T01:46:28.242Z,969.90
2018-06-28T01:47:28.278Z,969.95
2018-06-28T01:48:28.237Z,969.93
2018-06-28T01:49:28.329Z,969.93
2018-06-28T01:50:28.214Z,969.92
2018-06-28T01:51:28.225Z,969.96
2018-06-28T01:52:28.241Z,969.94
2018-06-28T01:53:28.293Z,969.92
2018-06-28T01:54:28.267Z,969.92
2018-06-28T01:55:28.158Z,969.94
2018-06-28T01:56:28.213Z,969.94
2018-06-28T01:57:28.254Z,969.97
2018-06-28T01:58:28.185Z,969.92
2018-06-28T01:59:28.205Z,969.93
2018-06-28T02:00:28.290Z,969.90
2018-06-28T02:01:28.201Z,969.91
2018-06-28T02:02:28.211Z,969.89
2018-06-28T02:03:28.254Z,969.90
2018-06-28T02:04:28.204Z,969.86
2018-06-28T02:05:28.285Z,969.86
2018-06-28T02:06:28.213Z,969.87
2018-06-28T02:07:28.215Z,969.86
2018-06-28T02:08:28.243Z,969.86
2018-06-28T02:09:28.185Z,969.86
2018-06-28T02:10:28.258Z,969.77
2018-06-28T02:11:28.222Z,969.78
2018-06-28T02:12:28.222Z,969.81
2018-06-28T02:13:28.195Z,969.80
2018-06-28T02:14:28.214Z,969.86
2018-06-28T02:15:28.218Z,969.89
2018-06-28T02:16:28.281Z,969.86
2018-06-28T02:17:28.209Z,969.88
2018-06-28T02:18:28.262Z,969.86
2018-06-28T02:19:28.340Z,969.88
2018-06-28T02:20:28.234Z,969.84
2018-06-28T02:21:28.305Z,969.88
2018-06-28T02:22:28.232Z,969.89
2018-06-28T02:23:28.300Z,969.87
2018-06-28T02:24:28.208Z,969.88
2018-06-28T02:25:28.196Z,969.87
2018-06-28T02:26:28.289Z,969.87
2018-06-28T02:27:28.210Z,969.88
2018-06-28T02:28:28.285Z,969.86
2018-06-28T02:29:28.226Z,969.90
2018-06-28T02:30:28.210Z,969.89
2018-06-28T02:31:29.218Z,969.86
2018-06-28T02:32:28.217Z,969.89
2018-06-28T02:33:28.253Z,969.90
2018-06-28T02:34:28.229Z,969.96
2018-06-28T02:35:28.375Z,969.91
2018-06-28T02:36:28.266Z,969.91
2018-06-28T02:37:28.229Z,969.92
2018-06-28T02:38:28.334Z,969.89
2018-06-28T02:39:28.304Z,969.93
2018-06-28T02:40:29.281Z,969.93
2018-06-28T02:41:28.228Z,969.96
2018-06-28T02:42:28.339Z,969.92
2018-06-28T02:43:28.196Z,969.90
2018-06-28T02:44:28.277Z,969.91
2018-06-28T02:45:28.216Z,969.88
2018-06-28T02:46:28.210Z,969.90
2018-06-28T02:47:28.182Z,969.90
2018-06-28T02:48:28.166Z,969.92
2018-06-28T02:49:28.188Z,969.94
2018-06-28T02:50:28.191Z,969.93
2018-06-28T02:51:28.216Z,969.93
2018-06-28T02:52:28.183Z,969.92
2018-06-28T02:53:28.176Z,969.90
2018-06-28T02:54:28.222Z,969.89
2018-06-28T02:55:28.268Z,969.91
2018-06-28T02:56:28.256Z,969.91
2018-06-28T02:57:28.171Z,969.87
2018-06-28T02:58:28.246Z,969.90
2018-06-28T02:59:28.184Z,969.88
2018-06-28T03:00:28.169Z,969.87
2018-06-28T03:01:28.239Z,969.90
2018-06-28T03:02:28.300Z,969.89
2018-06-28T03:03:28.201Z,969.88
2018-06-28T03:04:28.325Z,969.87
2018-06-28T03:05:28.516Z,969.93
2018-06-28T03:06:29.773Z,969.94
2018-06-28T03:07:28.804Z,969.92
2018-06-28T03:08:28.329Z,969.90
2018-06-28T03:09:28.420Z,969.91
2018-06-28T03:10:28.254Z,969.93
2018-06-28T03:11:28.331Z,969.88
2018-06-28T03:12:28.399Z,969.95
2018-06-28T03:13:28.371Z,969.94
2018-06-28T03:14:28.242Z,969.92
2018-06-28T03:15:28.206Z,969.92
2018-06-28T03:16:28.213Z,969.97
2018-06-28T03:17:28.297Z,969.96
2018-06-28T03:18:28.264Z,969.95
2018-06-28T03:19:28.208Z,969.95
2018-06-28T03:20:28.250Z,969.98
2018-06-28T03:21:28.315Z,969.93
2018-06-28T03:22:28.251Z,969.99
2018-06-28T03:23:28.325Z,970.03
2018-06-28T03:24:28.205Z,969.99
2018-06-28T03:25:28.205Z,970.01
2018-06-28T03:26:28.282Z,969.97
2018-06-28T03:27:28.201Z,969.93
2018-06-28T03:28:28.217Z,969.96
2018-06-28T03:29:28.239Z,969.97
2018-06-28T03:30:28.199Z,970.00
2018-06-28T03:31:28.170Z,969.93
2018-06-28T03:32:30.700Z,969.98
2018-06-28T03:33:28.136Z,969.95
2018-06-28T03:34:28.199Z,969.89
2018-06-28T03:35:28.159Z,969.94
2018-06-28T03:36:28.232Z,969.92
2018-06-28T03:37:28.173Z,969.89
2018-06-28T03:38:28.159Z,969.87
2018-06-28T03:39:28.153Z,969.85
2018-06-28T03:40:28.156Z,969.90
2018-06-28T03:41:28.167Z,969.87
2018-06-28T03:42:28.177Z,969.89
2018-06-28T03:43:28.187Z,969.90
2018-06-28T03:44:28.259Z,969.90
2018-06-28T03:45:28.250Z,969.89
2018-06-28T03:46:28.175Z,969.93
2018-06-28T03:47:28.177Z,969.92
2018-06-28T03:48:28.189Z,969.92
2018-06-28T03:49:28.233Z,969.96
2018-06-28T03:50:28.177Z,969.94
2018-06-28T03:51:28.257Z,969.95
2018-06-28T03:52:28.152Z,969.95
2018-06-28T03:53:28.312Z,969.97
2018-06-28T03:54:28.266Z,969.93
2018-06-28T03:55:28.264Z,969.98
2018-06-28T03:56:28.492Z,969.94
2018-06-28T03:57:28.478Z,970.01
2018-06-28T03:58:28.401Z,970.00
2018-06-28T03:59:28.266Z,969.99
2018-06-28T04:00:28.314Z,970.01
2018-06-28T04:01:28.334Z,970.04
2018-06-28T04:02:28.343Z,969.98
2018-06-28T04:03:28.477Z,969.98
2018-06-28T04:04:38.164Z,969.96
2018-06-28T04:06:26.495Z,969.93
2018-06-28T04:07:24.952Z,969.94
2018-06-28T04:08:45.982Z,970.00
2018-06-28T04:09:23.506Z,970.03
2018-06-28T04:10:24.483Z,969.99
2018-06-28T04:11:24.016Z,969.96
2018-06-28T04:12:24.023Z,969.95
2018-06-28T04:13:24.952Z,969.94
2018-06-28T04:14:23.521Z,969.92
2018-06-28T04:15:23.507Z,969.92
2018-06-28T04:16:23.362Z,969.90
2018-06-28T04:17:23.521Z,969.91
2018-06-28T04:18:24.038Z,969.86
2018-06-28T04:19:24.042Z,969.86
2018-06-28T04:20:23.532Z,969.82
2018-06-28T04:21:24.462Z,969.77
2018-06-28T04:22:24.501Z,969.83
2018-06-28T04:23:24.049Z,969.86
2018-06-28T04:24:24.999Z,969.87
2018-06-28T04:25:24.501Z,969.83
2018-06-28T04:26:24.491Z,969.80
2018-06-28T04:27:24.533Z,969.84
2018-06-28T04:28:24.492Z,969.85
2018-06-28T04:29:24.039Z,969.82
2018-06-28T04:30:23.522Z,969.79
2018-06-28T04:31:25.042Z,969.73
2018-06-28T04:32:34.016Z,969.73
2018-06-28T04:33:24.581Z,969.75
2018-06-28T04:34:24.484Z,969.73
2018-06-28T04:37:16.437Z,969.75
2018-06-28T04:38:16.945Z,969.74
2018-06-28T04:39:16.148Z,969.75
2018-06-28T04:40:16.954Z,969.72
2018-06-28T04:41:16.339Z,969.73
2018-06-28T04:42:16.940Z,969.73
2018-06-28T04:43:16.332Z,969.73
2018-06-28T04:44:16.458Z,969.71
2018-06-28T04:45:17.472Z,969.72
2018-06-28T04:46:15.951Z,969.76
2018-06-28T04:47:15.926Z,969.71
2018-06-28T04:48:15.955Z,969.75
2018-06-28T04:49:15.957Z,969.73
2018-06-28T04:50:15.948Z,969.73
2018-06-28T04:51:15.955Z,969.73
2018-06-28T04:52:15.932Z,969.76
2018-06-28T04:53:15.963Z,969.72
2018-06-28T04:54:15.932Z,969.73
2018-06-28T04:55:15.933Z,969.72
2018-06-28T04:56:15.939Z,969.75
2018-06-28T04:57:15.936Z,969.72
2018-06-28T04:58:15.941Z,969.70
2018-06-28T04:59:15.957Z,969.76
2018-06-28T05:00:15.967Z,969.75
2018-06-28T05:01:15.952Z,969.77
2018-06-28T05:02:15.972Z,969.81
2018-06-28T05:03:15.948Z,969.77
2018-06-28T05:04:15.945Z,969.72
2018-06-28T05:05:15.946Z,969.67
2018-06-28T05:06:15.956Z,969.65
2018-06-28T05:07:15.974Z,969.70
2018-06-28T05:08:15.956Z,969.73
2018-06-28T05:09:15.980Z,969.69
2018-06-28T05:10:15.954Z,969.67
2018-06-28T05:11:15.955Z,969.69
2018-06-28T05:12:15.957Z,969.71
2018-06-28T05:13:15.960Z,969.75
2018-06-28T05:14:15.959Z,969.73
2018-06-28T05:15:15.966Z,969.71
2018-06-28T05:16:15.965Z,969.77
2018-06-28T05:17:15.971Z,969.73
2018-06-28T05:18:15.969Z,969.75
2018-06-28T05:19:15.974Z,969.69
2018-06-28T05:20:15.975Z,969.72
2018-06-28T05:21:15.976Z,969.72
2018-06-28T05:22:15.977Z,969.69
2018-06-28T05:23:15.982Z,969.69
2018-06-28T05:24:15.985Z,969.69
2018-06-28T05:25:15.985Z,969.73
2018-06-28T05:26:15.985Z,969.74
2018-06-28T05:27:15.984Z,969.77
2018-06-28T05:28:15.988Z,969.73
2018-06-28T05:29:16.057Z,969.75
2018-06-28T05:30:15.993Z,969.78
2018-06-28T05:31:15.996Z,969.73
2018-06-28T05:32:16.000Z,969.72
2018-06-28T05:33:16.016Z,969.74
2018-06-28T05:34:16.006Z,969.72
2018-06-28T05:35:16.040Z,969.77
2018-06-28T05:36:16.009Z,969.79
2018-06-28T05:37:16.015Z,969.78
2018-06-28T05:38:16.040Z,969.80
2018-06-28T05:39:17.969Z,969.79
2018-06-28T05:40:16.043Z,969.80
2018-06-28T05:41:18.009Z,969.77
2018-06-28T05:42:16.103Z,969.77
2018-06-28T05:43:16.063Z,969.75
2018-06-28T05:44:16.029Z,969.79
2018-06-28T05:45:16.247Z,969.83
2018-06-28T05:46:16.034Z,969.85
2018-06-28T05:47:16.057Z,969.83
2018-06-28T05:48:16.073Z,969.83
2018-06-28T05:49:16.064Z,969.79
2018-06-28T05:50:16.083Z,969.81
2018-06-28T05:51:16.085Z,969.84
2018-06-28T05:52:16.175Z,969.78
2018-06-28T05:53:16.121Z,969.78
2018-06-28T05:54:16.081Z,969.77
2018-06-28T05:55:16.111Z,969.80
2018-06-28T05:56:16.476Z,969.80
2018-06-28T05:57:17.974Z,969.81
2018-06-28T05:58:16.112Z,969.78
2018-06-28T05:59:18.275Z,969.74
2018-06-28T06:00:20.415Z,969.77
2018-06-28T06:01:18.171Z,969.77
2018-06-28T06:02:16.182Z,969.75
2018-06-28T06:03:18.416Z,969.77
2018-06-28T06:07:55.864Z,969.88
2018-06-28T06:08:44.454Z,969.92
2018-06-28T06:10:37.895Z,969.90
2018-06-28T06:11:37.888Z,969.93
2018-06-28T06:13:31.699Z,969.94
2018-06-28T06:14:32.227Z,969.94
2018-06-28T06:15:31.496Z,969.91
2018-06-28T06:16:30.724Z,969.93
2018-06-28T06:17:30.705Z,969.95
2018-06-28T06:18:31.059Z,969.95
2018-06-28T06:19:31.521Z,969.96
2018-06-28T06:20:31.445Z,969.95
2018-06-28T06:21:31.495Z,969.93
2018-06-28T06:22:32.194Z,969.90
2018-06-28T06:23:31.708Z,969.87
2018-06-28T06:24:30.827Z,969.92
2018-06-28T06:25:31.731Z,969.88
2018-06-28T06:26:32.069Z,969.85
2018-06-28T06:27:31.569Z,969.88
2018-06-28T06:28:31.706Z,969.92
2018-06-28T06:29:32.414Z,969.84
2018-06-28T06:30:32.045Z,969.83
2018-06-28T06:31:32.228Z,969.81
2018-06-28T06:32:32.067Z,969.80
2018-06-28T06:33:31.562Z,969.77
2018-06-28T06:34:30.791Z,969.74
2018-06-28T06:35:31.582Z,969.75
2018-06-28T06:36:32.084Z,969.77
2018-06-28T06:37:31.573Z,969.72
2018-06-28T06:38:31.578Z,969.67
2018-06-28T06:39:31.014Z,969.68
2018-06-28T06:40:30.954Z,969.71
2018-06-28T06:41:30.596Z,969.73
2018-06-28T06:42:30.572Z,969.71
2018-06-28T06:43:30.599Z,969.68
2018-06-28T06:44:30.596Z,969.68
2018-06-28T06:45:30.595Z,969.68
2018-06-28T06:46:30.595Z,969.68
2018-06-28T06:47:30.622Z,969.70
2018-06-28T06:48:30.609Z,969.68
2018-06-28T06:49:30.609Z,969.62
2018-06-28T06:50:30.635Z,969.64
2018-06-28T06:51:30.624Z,969.64
2018-06-28T06:52:30.629Z,969.64
2018-06-28T06:53:30.633Z,969.63
2018-06-28T06:54:30.765Z,969.61
2018-06-28T06:55:30.975Z,969.65
2018-06-28T06:56:31.634Z,969.63
2018-06-28T06:59:00.631Z,969.63
2018-06-28T07:00:02.567Z,969.60
2018-06-28T07:01:00.682Z,969.64
2018-06-28T07:02:09.703Z,969.62
2018-06-28T07:03:59.602Z,969.65
2018-06-28T07:05:00.503Z,969.69
2018-06-28T07:05:59.669Z,969.68
2018-06-28T07:07:00.121Z,969.76
2018-06-28T07:07:59.623Z,969.71
2018-06-28T07:09:02.565Z,969.72
2018-06-28T07:11:28.254Z,969.69
2018-06-28T07:12:54.180Z,969.68
2018-06-28T07:13:25.226Z,969.69
2018-06-28T07:14:24.740Z,969.63
2018-06-28T07:15:25.314Z,969.62
2018-06-28T07:16:24.764Z,969.63
2018-06-28T07:17:23.808Z,969.66
2018-06-28T07:18:24.294Z,969.65
2018-06-28T07:22:44.210Z,969.67
2018-06-28T07:23:44.620Z,969.72
2018-06-28T07:26:05.277Z,969.69
2018-06-28T07:26:38.261Z,969.67
2018-06-28T07:28:32.840Z,969.61
2018-06-28T07:29:33.285Z,969.67
2018-06-28T07:30:32.357Z,969.69
2018-06-28T07:31:31.827Z,969.69
2018-06-28T07:32:31.886Z,969.69
2018-06-28T07:37:22.724Z,969.64
2018-06-28T07:38:13.236Z,969.69
2018-06-28T07:40:11.092Z,969.64
2018-06-28T07:42:53.883Z,969.59
2018-06-28T07:43:52.812Z,969.58
2018-06-28T07:45:05.445Z,969.57
2018-06-28T07:45:56.137Z,969.54
2018-06-28T07:47:22.265Z,969.52
2018-06-28T07:48:46.219Z,969.55
2018-06-28T07:49:47.193Z,969.51
2018-06-28T07:51:47.569Z,969.51
2018-06-28T07:52:52.339Z,969.51
2018-06-28T07:53:41.079Z,969.51
2018-06-28T07:54:41.753Z,969.52
2018-06-28T07:55:39.818Z,969.51
2018-06-28T07:56:39.696Z,969.50
2018-06-28T07:57:41.025Z,969.50
2018-06-28T07:59:13.184Z,969.52
2018-06-28T08:02:09.565Z,969.46
2018-06-28T08:05:50.712Z,969.49
2018-06-28T08:06:42.524Z,969.49
2018-06-28T08:08:38.687Z,969.42
2018-06-28T08:09:39.808Z,969.42
2018-06-28T08:11:37.619Z,969.46
2018-06-28T08:27:25.189Z,969.39
2018-06-28T08:37:55.411Z,969.39
2018-06-28T08:40:31.397Z,969.36
2018-06-28T08:43:13.506Z,969.40
2018-06-28T08:44:11.940Z,969.44
2018-06-28T08:45:13.975Z,969.30
2018-06-28T08:46:12.047Z,969.38
2018-06-28T08:47:11.899Z,969.35
2018-06-28T08:48:11.832Z,969.34
2018-06-28T08:49:11.876Z,969.38
2018-06-28T08:50:11.912Z,969.18
2018-06-28T08:51:11.902Z,969.33
2018-06-28T08:52:11.883Z,969.30
2018-06-28T08:53:11.934Z,969.22
2018-06-28T08:54:11.943Z,969.26
2018-06-28T08:55:11.985Z,969.29
2018-06-28T08:56:11.955Z,969.15
2018-06-28T08:57:11.944Z,969.29
2018-06-28T08:58:12.027Z,969.26
2018-06-28T08:59:11.973Z,969.30
2018-06-28T09:00:12.001Z,969.21
2018-06-28T09:01:11.989Z,969.30
2018-06-28T09:02:11.999Z,969.29
2018-06-28T09:03:12.065Z,969.23
2018-06-28T09:04:12.025Z,969.22
2018-06-28T09:05:12.050Z,969.01
2018-06-28T09:06:12.046Z,969.23
2018-06-28T09:07:12.067Z,969.13
2018-06-28T09:08:12.069Z,969.28
2018-06-28T09:09:12.082Z,969.28
2018-06-28T09:10:12.091Z,969.24
2018-06-28T09:11:12.101Z,969.10
2018-06-28T09:12:12.114Z,969.21
2018-06-28T09:13:12.130Z,969.17
2018-06-28T09:14:12.131Z,969.09
2018-06-28T09:15:12.172Z,969.11
2018-06-28T09:16:12.157Z,969.11
2018-06-28T09:17:12.161Z,969.06
2018-06-28T09:18:12.177Z,969.23
2018-06-28T09:19:12.183Z,969.14
2018-06-28T09:20:12.196Z,969.18
2018-06-28T09:21:12.201Z,969.09
2018-06-28T09:22:12.213Z,969.05
2018-06-28T09:23:12.228Z,969.08
2018-06-28T09:24:12.228Z,969.02
2018-06-28T09:25:12.244Z,969.08
2018-06-28T09:26:12.249Z,969.07
2018-06-28T09:27:12.268Z,969.07
2018-06-28T09:28:12.271Z,969.04
2018-06-28T09:29:12.277Z,969.06
2018-06-28T09:30:12.292Z,969.03
2018-06-28T09:31:12.296Z,969.01
2018-06-28T09:32:12.304Z,969.00
2018-06-28T09:33:12.338Z,969.00
2018-06-28T09:34:12.326Z,968.92
2018-06-28T09:35:12.334Z,968.88
2018-06-28T09:36:12.345Z,968.85
2018-06-28T09:37:12.353Z,968.81
2018-06-28T09:38:12.360Z,968.91
2018-06-28T09:39:12.371Z,968.92
2018-06-28T09:40:12.379Z,968.90
2018-06-28T09:41:12.388Z,968.81
2018-06-28T09:42:12.393Z,968.79
2018-06-28T09:43:12.416Z,968.75
2018-06-28T09:44:12.436Z,968.73
2018-06-28T09:45:12.423Z,968.87
2018-06-28T09:46:12.427Z,968.88
2018-06-28T09:47:12.435Z,968.88
2018-06-28T09:48:12.445Z,968.86
2018-06-28T09:49:12.451Z,968.84
2018-06-28T09:50:12.462Z,968.80
2018-06-28T09:51:12.481Z,968.80
2018-06-28T09:52:12.481Z,968.72
2018-06-28T09:53:12.486Z,968.71
2018-06-28T09:54:12.510Z,968.68
2018-06-28T09:55:12.502Z,968.74
2018-06-28T09:56:12.509Z,968.75
2018-06-28T09:57:12.524Z,968.70
2018-06-28T09:58:12.529Z,968.74
2018-06-28T09:59:12.578Z,968.76
2018-06-28T10:00:12.612Z,968.72
2018-06-28T10:01:12.556Z,968.73
2018-06-28T10:02:12.563Z,968.68
2018-06-28T10:03:12.572Z,968.63
2018-06-28T10:04:12.640Z,968.72
2018-06-28T10:05:12.589Z,968.73
2018-06-28T10:06:12.596Z,968.68
2018-06-28T10:07:12.606Z,968.56
2018-06-28T10:08:12.612Z,968.56
2018-06-28T10:09:15.306Z,968.47
2018-06-28T10:10:14.304Z,968.50
2018-06-28T10:11:12.640Z,968.56
2018-06-28T10:12:12.655Z,968.62
2018-06-28T10:13:12.668Z,968.60
2018-06-28T10:14:12.666Z,968.64
2018-06-28T10:15:12.684Z,968.57
2018-06-28T10:16:12.692Z,968.49
2018-06-28T10:17:12.692Z,968.58
2018-06-28T10:18:12.756Z,968.56
2018-06-28T10:19:12.706Z,968.45
2018-06-28T10:20:12.712Z,968.34
2018-06-28T10:21:12.724Z,968.47
2018-06-28T10:22:12.760Z,968.44
2018-06-28T10:23:12.751Z,968.40
2018-06-28T10:24:12.745Z,968.36
2018-06-28T10:25:12.755Z,968.38
2018-06-28T10:26:12.762Z,968.39
2018-06-28T10:27:12.776Z,968.43
2018-06-28T10:28:12.778Z,968.45
2018-06-28T10:29:12.786Z,968.39
2018-06-28T10:30:12.829Z,968.46
2018-06-28T10:31:12.803Z,968.41
2018-06-28T10:32:12.870Z,968.30
2018-06-28T10:33:12.816Z,968.30
2018-06-28T10:34:12.830Z,968.17
2018-06-28T10:35:12.832Z,968.24
2018-06-28T10:36:12.840Z,968.16
2018-06-28T10:37:12.851Z,968.32
2018-06-28T10:38:12.856Z,968.30
2018-06-28T10:39:12.865Z,968.31
2018-06-28T10:40:12.873Z,968.21
2018-06-28T10:41:12.894Z,968.23
2018-06-28T10:42:12.891Z,968.20
2018-06-28T10:43:12.898Z,968.19
2018-06-28T10:44:12.904Z,968.03
2018-06-28T10:45:12.913Z,968.10
2018-06-28T10:46:12.919Z,968.12
2018-06-28T10:47:12.930Z,968.20
2018-06-28T10:48:12.934Z,968.11
2018-06-28T10:49:12.954Z,968.10
2018-06-28T10:50:12.954Z,968.27
2018-06-28T10:51:13.096Z,968.04
2018-06-28T10:52:12.969Z,968.08
2018-06-28T10:53:12.976Z,968.11
2018-06-28T10:54:12.990Z,968.05
2018-06-28T10:55:12.993Z,967.99
2018-06-28T10:56:12.997Z,968.00
2018-06-28T10:57:13.008Z,967.96
2018-06-28T10:58:13.015Z,967.98
2018-06-28T10:59:13.024Z,967.99
2018-06-28T11:00:13.030Z,968.06
2018-06-28T11:01:13.040Z,968.02
2018-06-28T11:02:13.046Z,967.94
2018-06-28T11:03:13.058Z,967.93
2018-06-28T11:04:13.060Z,967.97
2018-06-28T11:05:13.076Z,967.98
2018-06-28T11:06:13.078Z,967.98
2018-06-28T11:07:13.084Z,967.95
2018-06-28T11:08:13.092Z,967.89
2018-06-28T11:09:13.121Z,967.93
2018-06-28T11:10:13.164Z,967.94
2018-06-28T11:11:13.118Z,967.91
2018-06-28T11:12:13.121Z,967.99
2018-06-28T11:13:13.130Z,967.93
2018-06-28T11:14:13.139Z,967.84
2018-06-28T11:15:13.157Z,967.86
2018-06-28T11:16:13.156Z,967.85
2018-06-28T11:17:13.163Z,967.79
2018-06-28T11:18:13.171Z,967.79
2018-06-28T11:19:13.180Z,967.76
2018-06-28T11:20:13.216Z,967.78
2018-06-28T11:21:13.194Z,967.71
2018-06-28T11:22:13.207Z,967.84
2018-06-28T11:23:13.212Z,967.88
2018-06-28T11:24:13.220Z,967.85
2018-06-28T11:25:13.226Z,967.84
2018-06-28T11:26:13.258Z,967.87
2018-06-28T11:27:13.244Z,967.88
2018-06-28T11:28:13.267Z,967.74
2018-06-28T11:29:13.264Z,967.74
2018-06-28T11:30:13.269Z,967.72
2018-06-28T11:31:13.279Z,967.63
2018-06-28T11:32:13.285Z,967.67
2018-06-28T11:33:13.295Z,967.69
2018-06-28T11:34:13.302Z,967.66
2018-06-28T11:35:13.338Z,967.70
2018-06-28T11:36:13.359Z,967.65
2018-06-28T11:37:13.327Z,967.62
2018-06-28T11:38:13.335Z,967.66
2018-06-28T11:39:13.346Z,967.59
2018-06-28T11:40:13.381Z,967.60
2018-06-28T11:41:13.423Z,967.55
2018-06-28T11:42:13.369Z,967.52
2018-06-28T11:43:13.378Z,967.54
2018-06-28T11:44:13.390Z,967.54
2018-06-28T11:45:13.414Z,967.54
2018-06-28T11:46:13.494Z,967.47
2018-06-28T11:47:13.414Z,967.48
2018-06-28T11:48:13.447Z,967.41
2018-06-28T11:49:13.428Z,967.36
2018-06-28T11:50:13.455Z,967.35
2018-06-28T11:51:13.462Z,967.36
2018-06-28T11:52:13.518Z,967.42
2018-06-28T11:53:13.463Z,967.40
2018-06-28T11:54:13.495Z,967.42
2018-06-28T11:55:13.504Z,967.40
2018-06-28T11:56:13.486Z,967.44
2018-06-28T11:57:13.491Z,967.39
2018-06-28T11:58:13.499Z,967.30
2018-06-28T11:59:13.526Z,967.32
2018-06-28T12:00:13.549Z,967.30
2018-06-28T12:01:13.525Z,967.31
2018-06-28T12:02:13.606Z,967.21
2018-06-28T12:03:13.543Z,967.28
2018-06-28T12:04:13.658Z,967.30
2018-06-28T12:05:13.607Z,967.25
2018-06-28T12:06:13.697Z,967.26
2018-06-28T12:07:13.573Z,967.26
2018-06-28T12:08:13.592Z,967.24
2018-06-28T12:09:13.587Z,967.13
2018-06-28T12:10:13.593Z,967.16
2018-06-28T12:11:13.601Z,967.13
2018-06-28T12:12:13.608Z,967.09
2018-06-28T12:13:13.610Z,967.14
2018-06-28T12:14:13.624Z,967.03
2018-06-28T12:15:13.626Z,967.08
2018-06-28T12:16:13.633Z,966.98
2018-06-28T12:17:13.643Z,967.06
2018-06-28T12:18:13.669Z,966.92
2018-06-28T12:19:13.657Z,967.11
2018-06-28T12:20:13.667Z,967.12
2018-06-28T12:21:13.678Z,967.06
2018-06-28T12:22:13.704Z,967.07
2018-06-28T12:23:13.690Z,967.03
2018-06-28T12:24:13.716Z,966.97
2018-06-28T12:25:13.726Z,967.02
2018-06-28T12:26:13.744Z,967.02
2018-06-28T12:27:13.764Z,966.89
2018-06-28T12:28:13.908Z,966.98
2018-06-28T12:29:13.733Z,966.97
2018-06-28T12:30:13.739Z,966.98
2018-06-28T12:31:13.751Z,966.95
2018-06-28T12:32:13.753Z,966.94
2018-06-28T12:33:13.760Z,966.98
2018-06-28T12:34:13.781Z,966.92
2018-06-28T12:35:13.776Z,966.94
2018-06-28T12:36:13.925Z,966.91
2018-06-28T12:37:15.380Z,966.94
2018-06-28T12:38:15.360Z,966.83
2018-06-28T12:39:13.862Z,966.87
2018-06-28T12:40:13.815Z,966.86
2018-06-28T12:41:13.824Z,966.82
2018-06-28T12:42:13.828Z,966.82
2018-06-28T12:43:13.865Z,966.88
2018-06-28T12:44:13.865Z,966.85
2018-06-28T12:45:13.945Z,966.78
2018-06-28T12:47:36.463Z,966.72
2018-06-28T12:48:36.703Z,966.78
2018-06-28T12:49:49.471Z,966.84
2018-06-28T12:53:29.506Z,966.79
2018-06-28T12:54:29.450Z,966.78
2018-06-28T12:56:22.682Z,966.82
2018-06-28T12:57:22.570Z,966.74
2018-06-28T12:58:22.451Z,966.80
2018-06-28T12:59:22.526Z,966.77
2018-06-28T13:00:22.410Z,966.76
2018-06-28T13:01:22.364Z,966.81
2018-06-28T13:02:22.373Z,966.77
2018-06-28T13:03:22.419Z,966.75
2018-06-28T13:04:22.467Z,966.73
2018-06-28T13:05:22.394Z,966.70
2018-06-28T13:06:22.399Z,966.66
2018-06-28T13:07:22.405Z,966.55
2018-06-28T13:08:22.431Z,966.60
2018-06-28T13:09:22.626Z,966.67
2018-06-28T13:10:22.594Z,966.70
2018-06-28T13:11:22.439Z,966.65
2018-06-28T13:12:22.475Z,966.61
2018-06-28T13:13:22.471Z,966.65
2018-06-28T13:14:30.763Z,966.64
2018-06-28T13:16:15.515Z,966.72
2018-06-28T13:17:15.487Z,966.73
2018-06-28T13:19:08.467Z,966.75
2018-06-28T13:20:08.490Z,966.73
2018-06-28T13:22:01.486Z,966.70
2018-06-28T13:23:01.474Z,966.65
2018-06-28T13:24:54.485Z,966.67
2018-06-28T13:25:54.529Z,966.62
2018-06-28T13:29:19.469Z,966.53
2018-06-28T13:30:19.479Z,966.54
2018-06-28T13:32:12.689Z,966.54
2018-06-28T13:33:12.516Z,966.54
2018-06-28T13:35:05.981Z,966.46
2018-06-28T13:36:05.273Z,966.49
2018-06-28T13:37:59.630Z,966.47
2018-06-28T13:38:59.359Z,966.43
2018-06-28T13:39:59.609Z,966.51
2018-06-28T13:40:59.457Z,966.48
2018-06-28T13:41:59.732Z,966.50